Time;durP1;ratioP1;P1;durP2;ratioP2;P2;SDS_P1;SDS_P2;PMS_P1;PMS_P2;Temp;Humidity;BMP_temperature;BMP_pressure;BME280_temperature;BME280_humidity;BME280_pressure;Samples;Min_cycle;Max_cycle;Signal;HPM_P1;HPM_P2
2022/11/10 00:01:06;;;;;;;8.02;2.40;;;;;;;12.88;61.29;99807.50;5011406;28;20060;-60
2022/11/10 00:03:34;;;;;;;10.43;2.60;;;;;;;12.88;61.29;99810.13;5011909;28;20057;-62
2022/11/10 00:06:03;;;;;;;7.43;3.03;;;;;;;12.88;61.42;99809.28;5011581;28;20065;-61
2022/11/10 00:08:30;;;;;;;8.93;2.60;;;;;;;12.88;61.34;99809.28;5011508;28;20046;-62
2022/11/10 00:10:57;;;;;;;10.32;2.38;;;;;;;12.86;61.31;99809.38;5011304;28;20060;-61
2022/11/10 00:13:26;;;;;;;13.10;2.95;;;;;;;12.85;61.53;99817.38;5011420;28;20510;-61
2022/11/10 00:18:38;;;;;;;11.27;2.38;;;;;;;12.84;61.36;99816.56;5011562;28;20145;-60
2022/11/10 00:21:07;;;;;;;8.35;2.38;;;;;;;12.80;61.57;99822.13;5011379;28;20049;-61
2022/11/10 00:23:34;;;;;;;10.57;3.05;;;;;;;12.79;61.45;99821.31;5011359;28;20108;-60
2022/11/10 00:26:01;;;;;;;12.80;3.08;;;;;;;12.76;61.61;99832.88;5011070;28;20054;-61
2022/11/10 00:28:30;;;;;;;10.90;2.78;;;;;;;12.74;61.59;99836.59;5011174;28;20414;-60
2022/11/10 00:30:57;;;;;;;8.15;3.33;;;;;;;12.71;61.62;99842.91;4994059;28;20050;-62
2022/11/10 00:33:23;;;;;;;9.63;3.20;;;;;;;12.69;61.77;99846.59;5011404;28;20512;-62
2022/11/10 00:35:50;;;;;;;11.77;3.17;;;;;;;12.67;62.01;99845.88;5011089;28;20054;-60
2022/11/10 00:38:17;;;;;;;11.88;2.72;;;;;;;12.65;61.97;99848.59;5011257;28;20133;-62
2022/11/10 00:40:43;;;;;;;10.73;2.72;;;;;;;12.63;61.97;99842.56;5010948;28;20060;-60
2022/11/10 00:43:10;;;;;;;8.98;2.67;;;;;;;12.62;61.90;99851.44;5011295;28;20058;-60
2022/11/10 00:45:40;;;;;;;15.35;3.00;;;;;;;12.57;62.36;99854.38;4993831;28;20045;-61
2022/11/10 00:48:07;;;;;;;9.75;3.30;;;;;;;12.58;62.10;99857.84;4993727;28;20406;-59
2022/11/10 00:50:33;;;;;;;12.07;3.05;;;;;;;12.55;62.06;99853.63;5011156;28;20140;-62
2022/11/10 00:53:00;;;;;;;10.18;3.20;;;;;;;12.52;62.15;99851.16;5010884;28;20061;-61
2022/11/10 00:55:27;;;;;;;8.50;2.72;;;;;;;12.50;62.00;99850.44;5011045;28;20540;-60
2022/11/10 00:57:53;;;;;;;6.43;2.70;;;;;;;12.47;61.99;99843.56;5010904;28;20050;-60
2022/11/10 01:00:20;;;;;;;9.43;3.13;;;;;;;12.43;62.00;99847.34;5011095;28;20521;-60
2022/11/10 01:02:46;;;;;;;7.85;3.13;;;;;;;12.42;62.13;99847.44;5011530;28;20414;-61
2022/11/10 01:05:13;;;;;;;9.02;2.90;;;;;;;12.37;62.24;99859.13;5014543;28;20096;-61
2022/11/10 01:07:39;;;;;;;10.75;2.80;;;;;;;12.35;62.31;99860.16;5014300;28;20128;-60
2022/11/10 01:10:06;;;;;;;9.95;3.22;;;;;;;12.32;62.26;99858.56;5014787;28;20411;-60
2022/11/10 01:12:33;;;;;;;11.07;3.42;;;;;;;12.29;62.52;99861.41;5014523;28;20138;-61
2022/11/10 01:14:59;;;;;;;7.60;2.75;;;;;;;12.29;62.55;99863.22;5014433;28;20042;-60
2022/11/10 01:17:26;;;;;;;7.90;2.60;;;;;;;12.26;62.33;99858.94;5014330;28;20045;-60
2022/11/10 01:19:52;;;;;;;13.50;3.30;;;;;;;12.25;62.57;99873.09;4996947;28;20054;-61
2022/11/10 01:22:19;;;;;;;9.15;3.13;;;;;;;12.22;62.72;99881.19;5014098;28;20050;-60
2022/11/10 01:24:45;;;;;;;7.55;2.75;;;;;;;12.21;62.65;99879.50;5014350;28;20461;-62
2022/11/10 01:27:12;;;;;;;10.50;3.05;;;;;;;12.19;62.67;99889.31;5014195;28;20057;-61
2022/11/10 01:29:38;;;;;;;10.15;3.40;;;;;;;12.17;62.67;99892.03;5014165;28;20050;-60
2022/11/10 01:32:05;;;;;;;9.77;3.30;;;;;;;12.16;63.02;99889.50;5014104;28;20174;-60
2022/11/10 01:34:31;;;;;;;11.68;3.00;;;;;;;12.14;62.84;99897.50;5014255;28;20054;-60
2022/11/10 01:36:58;;;;;;;8.25;2.92;;;;;;;12.14;62.93;99896.69;5013601;28;20529;-60
2022/11/10 01:39:24;;;;;;;9.40;3.17;;;;;;;12.12;62.82;99894.94;5014035;28;20041;-60
2022/11/10 01:41:51;;;;;;;12.85;3.35;;;;;;;12.10;63.11;99902.13;5013885;28;20060;-61
2022/11/10 01:44:23;;;;;;;12.68;3.47;;;;;;;12.08;63.89;99919.00;5013990;28;20046;-60
2022/11/10 01:46:50;;;;;;;12.60;3.63;;;;;;;12.08;63.12;99909.28;5013588;28;20046;-61
2022/11/10 01:49:21;;;;;;;13.48;3.63;;;;;;;12.07;63.90;99914.66;5013704;28;20054;-60
2022/11/10 01:51:52;;;;;;;14.23;3.38;;;;;;;12.06;63.68;99910.31;5013925;28;20046;-60
2022/11/10 01:54:35;;;;;;;10.00;2.97;;;;;;;12.04;64.67;99912.19;5013697;28;20049;-62
2022/11/10 01:57:06;;;;;;;11.10;3.47;;;;;;;12.04;63.78;99913.00;5013571;28;20062;-61
2022/11/10 01:59:38;;;;;;;16.05;3.60;;;;;;;12.03;63.63;99919.22;4996123;28;20077;-59
2022/11/10 02:02:15;;;;;;;8.30;3.20;;;;;;;12.01;64.63;99926.41;5013494;28;20148;-59
2022/11/10 02:04:41;;;;;;;12.68;3.10;;;;;;;12.03;63.51;99931.59;5012546;28;20141;-59
2022/11/10 02:07:09;;;;;;;11.00;2.80;;;;;;;12.02;63.45;99932.50;5013491;28;20056;-60
2022/11/10 02:09:36;;;;;;;11.50;3.45;;;;;;;12.00;63.52;99932.59;5013254;28;20054;-60
2022/11/10 02:12:03;;;;;;;11.73;2.95;;;;;;;11.99;63.46;99925.63;5013312;28;20146;-60
2022/11/10 02:14:29;;;;;;;8.07;3.47;;;;;;;11.98;63.67;99937.13;5012145;28;20713;-59
2022/11/10 02:16:56;;;;;;;10.05;3.30;;;;;;;11.97;63.78;99938.09;5013141;28;20053;-61
2022/11/10 02:19:26;;;;;;;14.27;3.55;;;;;;;11.94;63.78;99944.41;5013287;28;20046;-60
2022/11/10 02:21:52;;;;;;;8.57;3.22;;;;;;;11.93;63.70;99937.41;4995527;28;20050;-61
2022/11/10 02:24:19;;;;;;;8.85;2.90;;;;;;;11.93;63.79;99933.94;5013092;28;20060;-60
2022/11/10 02:26:49;;;;;;;9.35;3.40;;;;;;;11.91;64.26;99934.03;5012794;28;20057;-61
2022/11/10 02:29:16;;;;;;;15.45;3.22;;;;;;;11.93;63.83;99931.28;4995651;28;20080;-60
2022/11/10 02:31:42;;;;;;;10.73;2.92;;;;;;;11.93;64.06;99934.75;5012952;28;20053;-59
2022/11/10 02:34:09;;;;;;;11.43;3.28;;;;;;;11.93;64.16;99932.13;5011847;28;20054;-61
2022/11/10 02:36:36;;;;;;;16.35;4.32;;;;;;;11.94;64.06;99943.53;5012869;28;20065;-59
2022/11/10 02:39:02;;;;;;;11.90;3.80;;;;;;;11.95;64.15;99935.53;5012672;28;20053;-60
2022/11/10 02:41:29;;;;;;;8.50;3.40;;;;;;;11.96;64.20;99942.50;5013094;28;20222;-60
2022/11/10 02:43:56;;;;;;;10.93;3.40;;;;;;;11.97;64.26;99952.09;5012897;28;20046;-60
2022/11/10 02:46:23;;;;;;;10.95;3.35;;;;;;;11.99;64.22;99954.66;5012817;28;20066;-61
2022/11/10 02:48:49;;;;;;;12.38;3.70;;;;;;;12.00;64.27;99953.72;5012585;28;20060;-60
2022/11/10 02:51:16;;;;;;;12.73;4.25;;;;;;;12.01;64.16;99960.69;5012597;28;20060;-61
2022/11/10 02:53:42;;;;;;;14.15;4.78;;;;;;;12.03;64.46;99956.16;5012523;28;20057;-60
2022/11/10 02:56:09;;;;;;;14.07;3.90;;;;;;;12.03;64.45;99956.16;5012226;28;20054;-61
2022/11/10 02:58:35;;;;;;;11.75;4.47;;;;;;;12.04;64.38;99951.75;5012598;28;20061;-60
2022/11/10 03:01:04;;;;;;;15.20;4.00;;;;;;;12.04;64.50;99954.41;5012657;28;20510;-59
2022/11/10 03:03:31;;;;;;;8.27;3.53;;;;;;;12.05;64.31;99951.69;5012044;28;20148;-60
2022/11/10 03:05:58;;;;;;;16.55;4.55;;;;;;;12.05;64.44;99959.63;5012370;28;20060;-60
2022/11/10 03:08:24;;;;;;;11.20;4.00;;;;;;;12.05;64.50;99959.63;5012264;28;20552;-60
2022/11/10 03:10:55;;;;;;;13.15;4.43;;;;;;;12.04;65.23;99970.22;5010975;28;20057;-61
2022/11/10 03:13:24;;;;;;;12.73;3.80;;;;;;;12.06;64.74;99977.13;4994791;28;20054;-60
2022/11/10 03:16:05;;;;;;;;;;;;;;;12.07;65.08;99986.75;5012830;28;20049;-64
2022/11/10 03:18:31;;;;;;;12.02;3.85;;;;;;;12.13;64.13;99993.44;5012245;28;19932;-62
2022/11/10 03:20:58;;;;;;;12.70;4.15;;;;;;;12.14;64.33;99996.94;5011979;28;20042;-60
2022/11/10 03:23:25;;;;;;;15.02;4.10;;;;;;;12.13;64.47;100009.28;5012294;28;20056;-61
2022/11/10 03:25:51;;;;;;;9.15;4.15;;;;;;;12.14;64.51;100002.22;5011717;28;20133;-60
2022/11/10 03:28:18;;;;;;;11.80;3.55;;;;;;;12.15;64.60;99998.63;5011873;28;20058;-61
2022/11/10 03:30:44;;;;;;;13.65;4.35;;;;;;;12.16;64.55;99995.06;5012093;28;20140;-61
2022/11/10 03:33:10;;;;;;;12.07;4.30;;;;;;;12.17;64.58;100002.03;5012025;28;20140;-60
2022/11/10 03:35:37;;;;;;;15.65;4.05;;;;;;;12.19;64.57;100000.97;5011659;28;20490;-60
2022/11/10 03:38:04;;;;;;;11.70;4.50;;;;;;;12.21;64.58;99998.25;5011778;28;20141;-62
2022/11/10 03:40:30;;;;;;;14.13;4.72;;;;;;;12.22;64.68;100005.22;5011827;28;20108;-60
2022/11/10 03:43:17;;;;;;;14.82;4.97;;;;;;;12.24;64.38;99998.09;5011836;28;20057;-61
2022/11/10 03:45:43;;;;;;;18.23;4.95;;;;;;;12.24;64.67;100004.22;5011687;28;20405;-61
2022/11/10 03:48:10;;;;;;;10.27;5.35;;;;;;;12.24;64.55;100006.84;5011658;28;20554;-60
2022/11/10 03:50:37;;;;;;;13.82;4.72;;;;;;;12.26;64.65;100014.66;5011881;28;20153;-60
2022/11/10 03:53:03;;;;;;;11.35;4.82;;;;;;;12.27;64.61;100016.38;5011853;28;20137;-61
2022/11/10 03:55:30;;;;;;;12.93;5.05;;;;;;;12.29;64.71;100026.84;5011750;28;20419;-60
2022/11/10 03:58:01;;;;;;;13.07;4.78;;;;;;;12.27;65.04;100028.72;5011788;28;20056;-61
2022/11/10 04:00:28;;;;;;;13.60;4.35;;;;;;;12.28;64.65;100022.50;5012240;28;20272;-60
2022/11/10 04:02:54;;;;;;;15.73;5.35;;;;;;;12.28;64.63;100020.72;5011459;28;20073;-60
2022/11/10 04:10:57;;;;;;;11.40;4.68;;;;;;;12.27;64.54;100029.56;5011382;28;20133;-61
2022/11/10 04:16:09;;;;;;;16.70;5.50;;;;;;;12.25;64.52;100056.06;5011486;28;20056;-61
2022/11/10 04:18:35;;;;;;;13.60;4.75;;;;;;;12.25;64.75;100063.13;5011507;28;20061;-61
2022/11/10 04:21:02;;;;;;;18.20;5.05;;;;;;;12.25;64.75;100063.13;5011429;28;20062;-62
2022/11/10 04:23:33;;;;;;;10.80;4.75;;;;;;;12.24;64.99;100064.91;5011289;28;20101;-62
2022/11/10 04:29:11;;;;;;;10.25;4.75;;;;;;;12.22;66.12;100066.78;5006760;28;20046;-62
2022/11/10 04:34:44;;;;;;;11.07;4.53;;;;;;;12.27;64.74;100079.72;4995390;28;20156;-62
2022/11/10 04:37:11;;;;;;;11.60;4.90;;;;;;;12.29;64.91;100082.28;4997275;28;20054;-61
2022/11/10 04:39:37;;;;;;;12.75;4.72;;;;;;;12.25;64.76;100079.81;4995407;28;20109;-61
2022/11/10 04:42:05;;;;;;;14.45;4.88;;;;;;;12.26;64.86;100078.00;4995139;28;20043;-61
2022/11/10 04:44:32;;;;;;;16.10;5.22;;;;;;;12.26;65.03;100078.00;4995245;28;20487;-61
2022/11/10 04:46:58;;;;;;;12.68;4.93;;;;;;;12.25;65.05;100079.81;4995427;28;20054;-60
2022/11/10 04:49:25;;;;;;;15.32;5.07;;;;;;;12.26;64.95;100088.56;4995374;28;20053;-59
2022/11/10 04:51:51;;;;;;;16.60;5.40;;;;;;;12.27;65.06;100086.78;4995227;28;20109;-60
2022/11/10 04:54:18;;;;;;;12.50;5.53;;;;;;;12.27;65.13;100092.91;4995081;28;20487;-61
2022/11/10 04:56:44;;;;;;;15.57;5.10;;;;;;;12.28;65.18;100099.03;4994813;28;20050;-61
2022/11/10 04:59:11;;;;;;;15.15;5.20;;;;;;;12.28;65.41;100102.53;4995435;28;20058;-61
2022/11/10 05:01:37;;;;;;;12.38;5.88;;;;;;;12.30;65.31;100111.19;4995255;28;20137;-59
2022/11/10 05:04:04;;;;;;;12.57;4.72;;;;;;;12.30;65.21;100116.47;4995157;28;20369;-61
2022/11/10 05:06:31;;;;;;;9.25;5.22;;;;;;;12.32;65.29;100126.94;4994970;28;20129;-62
2022/11/10 05:08:57;;;;;;;18.33;5.72;;;;;;;12.32;65.43;100122.53;4994979;28;20105;-61
2022/11/10 05:11:24;;;;;;;14.50;5.43;;;;;;;12.34;65.54;100122.44;4994687;28;20057;-60
2022/11/10 05:13:50;;;;;;;14.93;5.65;;;;;;;12.35;65.31;100127.63;4995123;28;20058;-61
2022/11/10 05:16:17;;;;;;;9.98;4.68;;;;;;;12.37;65.33;100132.81;4994930;28;20050;-61
2022/11/10 05:18:43;;;;;;;13.25;5.40;;;;;;;12.38;65.44;100134.53;4994744;28;20053;-60
2022/11/10 05:21:10;;;;;;;16.60;5.65;;;;;;;12.41;65.74;100144.06;4994742;28;20562;-62
2022/11/10 05:23:36;;;;;;;18.25;6.88;;;;;;;12.42;65.36;100141.31;4994628;28;20376;-61
2022/11/10 05:26:14;;;;;;;16.98;5.85;;;;;;;12.43;65.56;100152.72;4994393;28;20081;-60
2022/11/10 05:31:13;;;;;;;17.83;6.13;;;;;;;12.46;65.57;100153.41;4934817;29;20062;-81
2022/11/10 05:33:39;;;;;;;17.13;5.90;;;;;;;12.47;65.54;100163.03;4936353;29;20051;-82
2022/11/10 05:36:06;;;;;;;17.02;5.95;;;;;;;12.49;65.64;100165.59;4955284;29;20083;-82
2022/11/10 05:38:33;;;;;;;12.63;5.35;;;;;;;12.49;65.44;100170.88;4958445;28;20560;-82
2022/11/10 05:41:07;;;;;;;18.60;6.10;;;;;;;12.49;65.54;100158.50;4974909;28;20428;-82
2022/11/10 05:43:33;;;;;;;13.60;5.65;;;;;;;12.50;65.53;100157.56;4974604;28;20054;-82
2022/11/10 05:46:01;;;;;;;17.40;6.20;;;;;;;12.50;65.71;100156.72;4974672;28;20059;-81
2022/11/10 05:48:27;;;;;;;9.95;5.32;;;;;;;12.53;65.56;100158.31;4957007;28;20117;-82
2022/11/10 05:50:53;;;;;;;13.10;6.18;;;;;;;12.53;65.48;100155.69;4974636;28;20070;-81
2022/11/10 05:53:20;;;;;;;15.63;6.00;;;;;;;12.55;65.44;100162.56;4973081;28;20043;-82
2022/11/10 05:55:47;;;;;;;13.20;5.57;;;;;;;12.55;65.45;100159.06;4973384;28;20168;-82
2022/11/10 05:58:13;;;;;;;13.68;5.68;;;;;;;12.56;65.46;100172.19;4974139;28;20074;-81
2022/11/10 06:00:40;;;;;;;14.60;5.88;;;;;;;12.57;65.46;100162.47;4974302;28;20062;-81
2022/11/10 06:03:15;;;;;;;16.65;5.55;;;;;;;12.55;66.02;100159.94;4973084;28;20062;-82
2022/11/10 06:05:42;;;;;;;16.98;4.80;;;;;;;12.58;65.35;100161.53;4957035;28;20137;-82
2022/11/10 06:08:09;;;;;;;15.23;5.93;;;;;;;12.58;65.25;100159.75;4974377;28;20063;-82
2022/11/10 06:10:36;;;;;;;12.15;5.05;;;;;;;12.58;65.33;100166.81;4974177;28;20066;-81
2022/11/10 06:13:03;;;;;;;16.30;5.18;;;;;;;12.56;65.09;100164.25;4974237;28;20050;-82
2022/11/10 06:15:29;;;;;;;13.15;5.03;;;;;;;12.55;65.23;100173.13;4958470;28;20455;-82
2022/11/10 06:17:59;;;;;;;16.83;5.15;;;;;;;12.52;65.54;100170.66;4952835;29;20102;-83
2022/11/10 06:20:26;;;;;;;15.23;4.82;;;;;;;12.52;64.96;100181.22;4957295;28;20046;-83
2022/11/10 06:22:58;;;;;;;16.65;5.25;;;;;;;12.49;65.41;100184.91;4970590;28;20047;-82
2022/11/10 06:25:25;;;;;;;17.23;5.00;;;;;;;12.48;64.95;100191.13;4964037;28;20134;-82
2022/11/10 06:27:52;;;;;;;17.23;4.93;;;;;;;12.46;64.82;100198.31;4955948;28;20449;-82
2022/11/10 06:30:18;;;;;;;16.23;4.88;;;;;;;12.43;65.06;100205.53;4955830;28;20497;-82
2022/11/10 06:32:45;;;;;;;14.50;5.05;;;;;;;12.42;65.17;100214.41;4973422;28;20109;-82
2022/11/10 06:35:11;;;;;;;15.68;4.93;;;;;;;12.41;65.27;100215.34;4955737;28;20501;-82
2022/11/10 06:37:38;;;;;;;12.55;4.85;;;;;;;12.38;65.17;100213.72;4972111;28;20042;-82
2022/11/10 06:40:10;;;;;;;14.18;4.50;;;;;;;12.34;65.76;100218.31;4972905;28;20069;-82
2022/11/10 06:42:36;;;;;;;14.35;4.35;;;;;;;12.34;65.03;100215.66;4956166;28;20047;-82
2022/11/10 06:45:03;;;;;;;17.10;4.20;;;;;;;12.33;65.37;100221.03;4955147;28;20047;-82
2022/11/10 06:47:31;;;;;;;12.77;4.35;;;;;;;12.31;65.33;100226.44;4965028;28;20058;-82
2022/11/10 06:49:57;;;;;;;13.02;4.07;;;;;;;12.30;65.31;100229.97;4954135;29;20059;-82
2022/11/10 06:52:23;;;;;;;12.98;3.78;;;;;;;12.29;65.31;100238.00;4967091;28;20063;-82
2022/11/10 06:54:50;;;;;;;14.57;4.43;;;;;;;12.28;65.22;100233.66;4972706;28;20525;-82
2022/11/10 06:57:16;;;;;;;10.13;4.40;;;;;;;12.26;65.43;100233.72;4941655;29;20051;-82
2022/11/10 06:59:43;;;;;;;11.98;4.07;;;;;;;12.26;65.47;100231.09;4953905;29;20113;-82
2022/11/10 07:02:13;;;;;;;20.95;5.75;;;;;;;12.24;65.79;100247.03;4959856;28;20116;-82
2022/11/10 07:04:41;;;;;;;17.23;4.45;;;;;;;12.27;65.59;100245.16;4957507;28;20055;-82
2022/11/10 07:07:08;;;;;;;11.40;4.18;;;;;;;12.26;65.62;100254.84;4955702;28;20058;-82
2022/11/10 07:09:35;;;;;;;8.75;3.90;;;;;;;12.27;65.62;100259.22;4972716;28;20055;-82
2022/11/10 07:12:02;;;;;;;11.45;4.45;;;;;;;12.28;65.63;100260.03;4968403;28;20109;-82
2022/11/10 07:14:29;;;;;;;13.27;4.20;;;;;;;12.27;65.65;100271.53;4970069;28;20046;-82
2022/11/10 07:16:55;;;;;;;13.77;4.15;;;;;;;12.27;65.72;100284.75;4966569;28;20053;-82
2022/11/10 07:19:22;;;;;;;12.70;4.30;;;;;;;12.25;65.66;100283.06;4969600;28;20579;-82
2022/11/10 07:21:48;;;;;;;11.55;4.43;;;;;;;12.25;65.69;100285.69;4971599;28;21203;-82
2022/11/10 07:24:15;;;;;;;11.25;4.13;;;;;;;12.26;65.66;100283.88;4958460;28;20047;-82
2022/11/10 07:26:41;;;;;;;12.70;4.20;;;;;;;12.24;65.62;100289.28;4938128;28;20455;-82
2022/11/10 07:29:08;;;;;;;18.00;4.97;;;;;;;12.24;65.51;100288.41;4977700;28;20070;-82
2022/11/10 07:31:34;;;;;;;12.82;4.40;;;;;;;12.24;65.72;100289.28;4971133;28;20054;-82
2022/11/10 07:34:01;;;;;;;16.05;5.25;;;;;;;12.22;65.56;100300.81;4951051;28;20058;-82
2022/11/10 07:36:27;;;;;;;22.92;4.55;;;;;;;12.21;65.42;100307.03;4954837;28;20054;-82
2022/11/10 07:38:54;;;;;;;16.05;4.28;;;;;;;12.19;65.58;100317.69;4954939;28;20501;-82
2022/11/10 07:41:21;;;;;;;16.52;5.05;;;;;;;12.19;65.71;100324.78;4968056;28;20519;-82
2022/11/10 07:43:47;;;;;;;12.45;5.72;;;;;;;12.17;65.65;100316.06;4971656;28;20283;-82
2022/11/10 07:46:14;;;;;;;16.80;5.60;;;;;;;12.15;65.74;100324.06;4972911;28;20109;-82
2022/11/10 07:48:40;;;;;;;16.85;4.93;;;;;;;12.15;66.11;100331.16;4970906;28;20528;-82
2022/11/10 07:51:07;;;;;;;20.45;5.25;;;;;;;12.14;65.91;100332.09;4973245;28;20493;-82
2022/11/10 07:53:34;;;;;;;13.75;4.78;;;;;;;12.12;66.00;100346.19;4970588;28;20043;-82
2022/11/10 07:56:01;;;;;;;14.43;4.70;;;;;;;12.12;65.93;100343.56;4972124;28;20117;-82
2022/11/10 07:58:29;;;;;;;16.30;5.47;;;;;;;12.12;66.01;100351.47;4964370;28;20058;-82
2022/11/10 08:00:55;;;;;;;14.02;5.38;;;;;;;12.14;65.97;100361.94;4972140;28;20112;-82
2022/11/10 08:03:22;;;;;;;14.10;4.10;;;;;;;12.15;66.08;100357.53;4983209;28;20050;-82
2022/11/10 08:05:49;;;;;;;15.50;4.70;;;;;;;12.18;66.22;100366.13;4961442;28;20095;-82
2022/11/10 08:08:15;;;;;;;14.20;5.10;;;;;;;12.21;66.23;100367.75;4964068;28;20061;-83
2022/11/10 08:10:42;;;;;;;19.15;5.22;;;;;;;12.23;66.30;100352.69;4971735;28;20493;-82
2022/11/10 08:13:11;;;;;;;13.35;5.03;;;;;;;12.24;66.23;100363.19;4973659;28;20058;-83
2022/11/10 08:15:38;;;;;;;14.55;4.70;;;;;;;12.28;66.47;100348.00;4976347;28;20055;-82
2022/11/10 08:18:17;;;;;;;14.60;4.82;;;;;;;12.29;66.96;100349.72;4958612;28;20054;-82
2022/11/10 08:20:43;;;;;;;13.10;4.65;;;;;;;12.35;66.09;100367.88;4976558;28;20485;-82
2022/11/10 08:23:10;;;;;;;17.00;4.68;;;;;;;12.38;66.11;100359.75;4958824;28;20117;-82
2022/11/10 08:25:38;;;;;;;14.70;4.80;;;;;;;12.41;66.03;100374.56;4975925;28;20139;-83
2022/11/10 08:28:13;;;;;;;17.17;4.70;;;;;;;12.43;66.66;100382.41;4956415;28;20409;-82
2022/11/10 08:30:43;;;;;;;11.93;3.95;;;;;;;12.47;66.35;100383.97;4973503;28;20046;-82
2022/11/10 08:33:12;;;;;;;14.98;4.25;;;;;;;12.49;66.33;100390.84;4956959;29;20047;-82
2022/11/10 08:35:42;;;;;;;14.10;4.53;;;;;;;12.54;66.56;100401.19;4939460;29;20067;-82
2022/11/10 08:38:11;;;;;;;13.68;4.13;;;;;;;12.58;66.25;100405.34;4961476;28;20069;-82
2022/11/10 08:40:38;;;;;;;13.52;4.25;;;;;;;12.63;66.24;100399.81;4983108;28;20049;-81
2022/11/10 08:43:09;;;;;;;21.70;4.90;;;;;;;12.67;66.20;100414.53;4974372;28;20105;-82
2022/11/10 08:45:37;;;;;;;14.93;4.68;;;;;;;12.70;66.21;100416.16;4975748;28;20572;-81
2022/11/10 08:48:10;;;;;;;13.27;4.63;;;;;;;12.71;66.46;100417.88;4974987;28;20500;-81
2022/11/10 08:50:38;;;;;;;15.02;4.50;;;;;;;12.77;66.41;100399.91;4975403;28;20058;-82
2022/11/10 08:53:16;;;;;;;17.20;4.10;;;;;;;12.79;66.83;100407.75;4967419;28;20422;-82
2022/11/10 08:55:43;;;;;;;14.02;3.92;;;;;;;12.86;66.51;100416.19;4956575;28;20062;-82
2022/11/10 08:58:17;;;;;;;14.43;4.28;;;;;;;12.88;66.63;100423.09;4957727;28;20050;-82
2022/11/10 09:00:44;;;;;;;14.23;4.28;;;;;;;12.96;66.10;100421.78;4973815;28;20061;-82
2022/11/10 09:03:15;;;;;;;12.85;3.75;;;;;;;12.98;66.00;100415.47;4965252;28;20387;-82
2022/11/10 09:05:42;;;;;;;15.90;3.95;;;;;;;13.03;65.53;100412.56;4988264;28;20113;-82
2022/11/10 09:08:08;;;;;;;13.52;4.25;;;;;;;13.03;65.61;100404.66;4957661;28;20468;-82
2022/11/10 09:10:41;;;;;;;19.30;4.15;;;;;;;13.05;65.92;100426.56;4975094;28;20046;-82
2022/11/10 09:13:09;;;;;;;13.95;4.22;;;;;;;13.09;65.70;100419.31;4957899;28;20058;-82
2022/11/10 09:15:36;;;;;;;13.27;3.70;;;;;;;13.09;65.53;100428.06;4974768;28;20050;-82
2022/11/10 09:18:05;;;;;;;12.10;3.58;;;;;;;13.12;65.61;100421.78;4974395;28;20104;-82
2022/11/10 09:20:33;;;;;;;18.50;4.68;;;;;;;13.14;65.73;100433.97;4982091;28;20053;-81
2022/11/10 09:23:12;;;;;;;12.68;3.40;;;;;;;13.13;66.05;100437.53;4971052;28;20080;-82
2022/11/10 09:25:39;;;;;;;15.82;3.92;;;;;;;13.19;65.41;100444.25;4974595;28;20066;-81
2022/11/10 09:28:11;;;;;;;14.82;3.85;;;;;;;13.20;65.90;100443.31;4961666;28;20051;-82
2022/11/10 09:30:38;;;;;;;16.33;3.63;;;;;;;13.24;65.56;100451.94;4959777;28;20098;-82
2022/11/10 09:33:05;;;;;;;11.73;3.33;;;;;;;13.26;65.55;100455.34;4974802;28;20050;-82
2022/11/10 09:35:31;;;;;;;17.10;3.60;;;;;;;13.32;65.57;100462.06;4974759;28;20456;-81
2022/11/10 09:37:58;;;;;;;10.98;3.33;;;;;;;13.35;65.57;100456.63;4957226;28;20461;-82
2022/11/10 09:40:35;;;;;;;14.98;3.78;;;;;;;13.37;65.64;100452.09;4957263;28;20442;-82
2022/11/10 09:43:04;;;;;;;18.77;4.03;;;;;;;13.45;65.58;100470.16;4974684;28;20055;-82
2022/11/10 09:45:34;;;;;;;13.13;3.20;;;;;;;13.49;65.66;100461.16;4974337;28;20497;-82
2022/11/10 09:48:27;;;;;;;11.30;3.40;;;;;;;13.51;65.82;100469.84;4974662;28;20069;-82
2022/11/10 09:51:09;;;;;;;14.85;3.60;;;;;;;13.62;65.41;100462.13;4972726;28;20054;-82
2022/11/10 09:53:40;;;;;;;14.07;3.40;;;;;;;13.67;65.37;100473.28;4968713;28;20054;-82
2022/11/10 09:56:13;;;;;;;13.63;3.22;;;;;;;13.72;65.42;100461.59;4974273;28;20047;-82
2022/11/10 09:58:41;;;;;;;;;;;;;;;13.82;65.63;100462.75;4973843;28;20059;-82
2022/11/10 10:01:32;;;;;;;14.60;3.13;;;;;;;13.92;65.49;100460.41;4972101;28;19922;-82
2022/11/10 10:04:32;;;;;;;15.93;3.33;;;;;;;13.99;64.99;100474.97;4972014;28;20129;-81
2022/11/10 10:07:12;;;;;;;12.40;3.15;;;;;;;14.05;64.79;100463.16;4963730;28;20050;-82
2022/11/10 10:10:01;;;;;;;9.23;2.88;;;;;;;14.14;64.59;100475.84;4973405;28;20564;-82
2022/11/10 10:12:54;;;;;;;15.23;4.00;;;;;;;14.16;64.55;100476.59;4957085;28;20054;-82
2022/11/10 10:15:48;;;;;;;22.10;3.85;;;;;;;14.23;64.29;100477.06;4974075;28;20062;-82
2022/11/10 10:18:33;;;;;;;16.80;2.95;;;;;;;14.27;64.19;100489.19;4974099;28;20050;-82
2022/11/10 10:21:17;;;;;;;10.38;2.85;;;;;;;14.33;64.28;100486.16;4972686;28;20406;-82
2022/11/10 10:23:49;;;;;;;13.40;3.53;;;;;;;14.39;64.18;100497.34;4973975;28;20444;-82
2022/11/10 10:26:40;;;;;;;14.38;3.42;;;;;;;14.47;64.02;100500.38;4959068;28;20087;-82
2022/11/10 10:29:10;;;;;;;14.07;3.05;;;;;;;14.54;64.17;100498.19;4973719;28;20057;-82
2022/11/10 10:31:44;;;;;;;14.48;3.83;;;;;;;14.61;64.38;100496.00;4974122;28;20055;-82
2022/11/10 10:34:14;;;;;;;15.90;3.42;;;;;;;14.70;64.09;100509.53;4973807;28;20142;-82
2022/11/10 10:36:43;;;;;;;13.60;3.58;;;;;;;14.79;63.92;100509.91;4969506;28;20497;-82
2022/11/10 10:39:16;;;;;;;15.05;3.22;;;;;;;14.87;63.70;100510.28;4956216;28;20062;-82
2022/11/10 10:41:46;;;;;;;;;;;;;;;14.95;63.31;100520.44;4956994;28;20047;-82
2022/11/10 10:44:15;;;;;;;14.93;3.30;;;;;;;15.10;64.01;100519.44;4973650;28;19976;-82
2022/11/10 10:46:46;;;;;;;18.02;4.50;;;;;;;15.18;63.48;100526.91;4971547;28;20191;-82
2022/11/10 10:49:25;;;;;;;16.52;3.15;;;;;;;15.28;63.16;100523.69;4956049;28;20413;-82
2022/11/10 10:52:16;;;;;;;15.73;4.25;;;;;;;15.38;62.96;100535.38;4949551;28;20421;-82
2022/11/10 10:54:43;;;;;;;8.95;3.22;;;;;;;15.52;63.10;100536.28;4972845;28;20046;-82
2022/11/10 10:57:29;;;;;;;16.60;3.53;;;;;;;15.58;61.93;100527.91;4969909;28;20059;-82
2022/11/10 11:00:28;;;;;;;12.15;3.05;;;;;;;15.67;61.88;100519.38;4972912;28;20061;-82
2022/11/10 11:03:06;;;;;;;14.38;3.22;;;;;;;15.81;62.20;100525.56;4953195;28;20528;-82
2022/11/10 11:05:32;;;;;;;11.70;3.28;;;;;;;15.95;62.35;100516.66;4955471;28;20035;-82
2022/11/10 11:08:01;;;;;;;13.10;3.22;;;;;;;16.06;62.30;100523.91;4972726;28;20058;-82
2022/11/10 11:10:33;;;;;;;15.73;3.80;;;;;;;16.24;63.06;100525.31;4955621;28;20055;-82
2022/11/10 11:13:14;;;;;;;11.25;2.65;;;;;;;16.45;61.15;100524.78;4973021;28;20398;-82
2022/11/10 11:15:41;;;;;;;14.35;3.22;;;;;;;16.68;61.76;100530.31;4972876;28;20117;-82
2022/11/10 11:18:18;;;;;;;8.85;2.80;;;;;;;16.88;60.92;100534.22;4971635;28;20046;-82
2022/11/10 11:20:58;;;;;;;12.77;3.08;;;;;;;17.13;60.57;100544.91;4955525;28;20565;-82
2022/11/10 11:23:28;;;;;;;16.02;3.90;;;;;;;17.44;61.76;100545.34;4972702;28;20050;-82
2022/11/10 11:26:00;;;;;;;12.93;3.17;;;;;;;17.70;59.79;100534.56;4970593;28;20054;-82
2022/11/10 11:28:39;;;;;;;12.23;3.25;;;;;;;18.00;58.64;100540.34;4954833;28;20059;-82
2022/11/10 11:31:18;;;;;;;14.23;3.33;;;;;;;18.28;59.02;100544.44;5053985;23;20501;-61
2022/11/10 11:34:04;;;;;;;13.88;2.90;;;;;;;18.61;59.39;100539.28;4990083;28;20066;-61
2022/11/10 11:36:40;;;;;;;10.52;2.65;;;;;;;19.00;58.96;100544.25;4988807;28;20042;-60
2022/11/10 11:39:22;;;;;;;12.95;2.92;;;;;;;19.43;58.39;100547.94;4992301;28;20050;-62
2022/11/10 11:42:27;;;;;;;11.30;2.75;;;;;;;19.81;55.29;100566.25;4992116;28;20061;-60
2022/11/10 11:45:17;;;;;;;10.65;2.80;;;;;;;20.14;55.00;100564.41;4992083;28;20069;-61
2022/11/10 11:48:09;;;;;;;12.57;3.08;;;;;;;20.43;54.61;100569.97;4991758;28;20057;-60
2022/11/10 11:51:40;;;;;;;12.80;3.20;;;;;;;20.70;53.76;100565.88;4992255;28;20085;-61
2022/11/10 11:54:29;;;;;;;8.93;2.97;;;;;;;21.06;54.35;100557.44;4875359;29;20053;-61